Latest Weather Observations for Cape Bruny AWS

IDT60901

Issued at 11:51 pm EST Sunday 1 May 2016 (issued every 10 minutes, with the page automatically refreshed every 10 minutes)

About weather observations | Map of Hobart area stations | Latest observations for Hobart area | Other Formats
Station Details ID: 094198 Name: CAPE BRUNY (CAPE BRUNY) Lat: -43.49 Lon: 147.14 Height: 59.7 m
Data from the previous 72 hours. | See also: Recent months at Cape Bruny AWS
Date/Time
EST
Tmp

°C
App
Tmp
°C
Dew
Point
°C
Rel
Hum
%
Delta-T

°C
Wind Press
QNH
hPa
Press
MSL
hPa
Rain
since
9 am
mm
Dir
 
Spd
km/h
Gust
km/h
Spd
kts
Gust
kts
01/11:32pm 9.7 -2.7 4.5 70 2.3 W 59 78 32 42 998.9 999.0 24.0
01/11:30pm 9.8 -2.2 4.8 71 2.2 W 57 74 31 40 998.9 999.0 24.0
01/11:04pm 9.8 -1.2 5.2 73 2.1 W 52 74 28 40 999.0 999.1 24.0
01/11:00pm 9.7 -1.2 5.3 74 2.0 W 52 65 28 35 999.0 999.1 24.0
01/10:30pm 9.3 -1.1 6.0 80 1.5 W 50 69 27 37 999.1 999.2 24.0
01/10:00pm 9.8 -2.5 7.1 83 1.3 W 61 83 33 45 998.4 998.5 23.8
01/09:30pm 9.6 -3.4 7.2 85 1.1 W 65 91 35 49 997.9 997.9 23.8
01/09:00pm 9.7 -4.1 8.0 89 0.8 WSW 70 95 38 51 997.2 997.2 23.8
01/08:30pm 9.6 -5.3 8.0 90 0.8 WSW 76 100 41 54 996.2 996.2 23.6
01/08:00pm 10.0 -4.4 8.4 90 0.8 WSW 74 95 40 51 995.5 995.5 22.4
01/07:30pm 10.0 -3.4 8.8 92 0.6 W 69 89 37 48 994.9 994.9 21.0
01/07:00pm 10.4 -4.2 9.2 92 0.6 WSW 76 98 41 53 993.8 993.8 19.4
01/06:30pm 10.4 -5.0 9.2 92 0.6 WSW 80 98 43 53 992.1 992.1 16.8
01/06:00pm 11.7 -3.7 10.4 92 0.7 WSW 82 109 44 59 990.6 990.6 13.6
01/05:30pm 12.3 -1.8 11.0 92 0.7 WSW 76 102 41 55 988.8 988.8 11.4
01/05:21pm 12.3 2.0 10.9 91 0.7 WSW 56 91 30 49 988.7 988.7 10.8
01/05:20pm 12.1 2.1 10.7 91 0.7 WSW 54 91 29 49 988.6 988.6 10.8
01/05:17pm 12.6 3.9 11.2 91 0.7 W 48 78 26 42 988.7 988.7 10.2
01/05:00pm 12.4 4.8 10.6 89 0.9 W 41 54 22 29 988.4 988.4 7.2
01/04:51pm 12.4 5.6 10.6 89 0.9 W 37 56 20 30 988.1 988.1 6.8
01/04:30pm 12.4 6.5 10.6 89 0.9 WSW 32 44 17 24 987.8 987.8 6.0
01/04:00pm 13.0 9.6 11.4 90 0.9 WSW 20 26 11 14 987.8 987.8 5.4
01/03:30pm 13.2 10.1 11.6 90 0.9 WSW 19 24 10 13 987.6 987.6 5.2
01/03:00pm 13.7 11.1 11.9 89 1.0 WSW 17 20 9 11 987.5 987.5 5.2
01/02:30pm 14.4 12.4 12.6 89 1.0 W 15 19 8 10 987.6 987.6 5.2
01/02:00pm 13.8 11.6 12.0 89 1.0 WSW 15 20 8 11 988.0 988.0 5.2
01/01:30pm 14.1 12.4 12.3 89 1.0 WSW 13 15 7 8 988.6 988.6 5.2
01/01:00pm 14.2 13.3 12.6 90 0.9 W 9 13 5 7 989.2 989.2 5.2
01/12:30pm 13.7 12.7 12.3 91 0.8 E 9 13 5 7 990.1 990.1 5.2
01/12:00pm 13.7 12.7 12.4 92 0.7 E 9 11 5 6 990.8 990.8 5.2
01/11:30am 13.3 12.2 12.0 92 0.7 ESE 9 11 5 6 991.3 991.3 5.2
01/11:00am 13.3 12.6 12.0 92 0.7 ENE 7 9 4 5 992.5 992.5 5.2
01/10:30am 13.0 11.8 11.7 92 0.7 E 9 13 5 7 993.6 993.6 4.8
01/10:00am 12.8 11.9 11.5 92 0.7 NE 7 11 4 6 994.7 994.7 4.0
01/09:30am 12.8 11.5 11.4 91 0.7 W 9 11 5 6 995.3 995.3 2.4
01/09:00am 12.9 10.9 11.5 91 0.7 WNW 13 17 7 9 996.5 996.5 8.0
01/08:33am 12.8 7.9 11.2 90 0.8 NW 28 46 15 25 997.1 997.1 5.8
01/08:30am 12.9 7.2 11.1 89 0.9 WNW 32 46 17 25 996.9 996.9 5.4
01/08:25am 13.1 8.2 11.2 88 1.0 WNW 28 46 15 25 997.0 997.0 3.6
01/08:00am 14.1 12.7 12.1 88 1.1 NNW 11 15 6 8 996.2 996.2 1.4
01/07:30am 14.1 12.6 12.0 87 1.1 ENE 11 15 6 8 996.7 996.7 1.4
01/07:00am 14.4 12.2 12.1 86 1.3 NNE 15 22 8 12 997.3 997.3 1.2
01/06:30am 14.2 12.6 11.5 84 1.4 N 11 15 6 8 998.3 998.3 0.8
01/06:00am 14.8 13.2 11.4 80 1.8 NW 11 17 6 9 999.7 999.7 0.8
01/05:30am 15.4 12.1 11.6 78 2.1 NW 20 33 11 18 1000.4 1000.4 0.2
01/05:00am 16.2 13.5 11.8 75 2.4 NNE 17 28 9 15 999.9 999.9 0.2
01/04:30am 16.0 12.8 11.4 74 2.5 NNE 19 30 10 16 1000.0 1000.0 0.2
01/04:00am 16.3 12.8 11.0 71 2.9 NNE 20 26 11 14 1000.5 1000.5 0.2
01/03:30am 15.8 12.3 10.8 72 2.7 NNE 20 26 11 14 1000.4 1000.4 0.2
01/03:00am 15.9 12.2 10.2 69 3.0 NE 20 26 11 14 1000.8 1000.8 0.2
01/02:30am 16.0 12.2 9.9 67 3.2 NE 20 26 11 14 1001.7 1001.7 0.2
01/02:00am 15.6 11.8 9.1 65 3.4 NE 19 24 10 13 1002.5 1002.4 0.2
01/01:30am 15.6 12.4 8.6 63 3.6 NNE 15 19 8 10 1003.5 1003.4 0.2
01/01:00am 15.5 12.3 8.5 63 3.6 NNE 15 17 8 9 1004.1 1004.0 0.2
01/12:30am 15.3 12.2 9.0 66 3.2 N 15 17 8 9 1004.5 1004.5 0.2
01/12:00am 15.6 13.7 9.1 65 3.4 N 9 13 5 7 1005.0 1005.0 0.2
 
Date/Time
EST
Tmp

°C
App
Tmp
°C
Dew
Point
°C
Rel
Hum
%
Delta-T

°C
Wind Press
QNH
hPa
Press
MSL
hPa
Rain
since
9 am
mm
Dir
 
Spd
km/h
Gust
km/h
Spd
kts
Gust
kts
30/11:30pm 15.7 12.6 8.7 63 3.6 N 15 20 8 11 1005.3 1005.3 0.2
30/11:00pm 15.6 12.9 8.8 64 3.5 N 13 19 7 10 1005.4 1005.4 0.2
30/10:30pm 15.9 13.3 9.3 65 3.4 N 13 24 7 13 1005.8 1005.8 0.2
30/10:00pm 15.7 13.4 9.1 65 3.4 N 11 24 6 13 1005.9 1005.9 0.2
30/09:30pm 15.8 13.0 8.5 62 3.7 NNW 13 19 7 10 1005.9 1005.9 0.2
30/09:00pm 15.0 12.3 8.9 67 3.1 N 13 17 7 9 1006.1 1006.1 0.2
30/08:30pm 15.3 13.5 8.1 62 3.6 NE 7 11 4 6 1005.9 1005.9 0.2
30/08:00pm 16.6 14.1 8.3 58 4.2 N 11 13 6 7 1005.9 1005.9 0.2
30/07:30pm 15.3 13.2 8.1 62 3.6 NNE 9 11 5 6 1006.0 1006.0 0.2
30/07:00pm 16.4 16.0 8.1 58 4.2 CALM 0 6 0 3 1006.3 1006.3 0.2
30/06:30pm 16.0 14.3 8.5 61 3.8 WNW 7 11 4 6 1006.4 1006.4 0.2
30/06:00pm 16.4 14.7 8.4 59 4.1 W 7 9 4 5 1006.4 1006.4 0.2
30/05:30pm 16.9 15.1 8.1 56 4.5 WNW 7 9 4 5 1006.1 1006.1 0.2
30/05:00pm 18.8 14.8 8.2 50 5.5 NW 19 24 10 13 1006.1 1006.1 0.2
30/04:30pm 19.4 15.7 7.8 47 6.0 NW 17 24 9 13 1006.3 1006.3 0.2
30/04:00pm 21.2 17.3 8.5 44 6.7 NW 19 26 10 14 1006.3 1006.3 0.2
30/03:30pm 21.6 18.1 8.8 44 6.8 NW 17 26 9 14 1006.5 1006.5 0.2
30/03:00pm 21.3 18.5 8.6 44 6.7 NW 13 19 7 10 1006.6 1006.6 0.2
30/02:30pm 22.5 20.4 8.2 40 7.5 N 9 13 5 7 1006.6 1006.6 0.2
30/02:00pm 21.2 17.3 8.8 45 6.6 NW 19 30 10 16 1006.6 1006.6 0.2
30/01:30pm 21.5 17.5 8.4 43 6.9 NNW 19 30 10 16 1006.8 1006.8 0.2
30/01:00pm 21.1 17.8 9.4 47 6.3 NNE 17 24 9 13 1007.1 1007.1 0.2
30/12:30pm 20.9 18.1 10.1 50 5.8 N 15 26 8 14 1007.5 1007.5 0.0
30/12:00pm 19.8 16.6 10.0 53 5.3 NNE 17 22 9 12 1008.3 1008.3 0.0
30/11:30am 19.6 17.3 10.6 56 4.9 NNE 13 20 7 11 1008.7 1008.7 0.0
30/11:00am 18.6 15.7 10.9 61 4.2 NE 17 26 9 14 1009.1 1009.1 0.0
30/10:30am 17.4 14.3 10.3 63 3.8 NE 17 26 9 14 1009.4 1009.4 0.0
30/10:00am 15.9 13.2 10.4 70 2.9 N 15 26 8 14 1009.8 1009.8 0.0
30/09:30am 15.1 12.0 10.3 73 2.5 NNE 17 26 9 14 1009.9 1009.9 0.0
30/09:00am 15.4 11.8 10.0 70 2.8 NNE 19 30 10 16 1010.2 1010.2 1.8
30/08:30am 15.6 13.0 10.6 72 2.7 NNE 15 20 8 11 1010.2 1010.2 1.8
30/08:00am 14.9 11.5 10.5 75 2.3 NNE 19 30 10 16 1010.2 1010.2 1.8
30/07:30am 14.6 11.0 10.0 74 2.4 N 19 26 10 14 1010.1 1010.1 1.8
30/07:00am 14.1 10.6 10.1 77 2.1 NNE 19 24 10 13 1009.6 1009.6 1.8
30/06:30am 14.0 10.8 9.8 76 2.2 N 17 24 9 13 1009.6 1009.6 1.8
30/06:00am 14.1 10.5 9.9 76 2.2 N 19 24 10 13 1009.5 1009.5 1.8
30/05:30am 13.4 10.3 10.4 82 1.6 N 17 24 9 13 1009.8 1009.8 1.8
30/05:00am 13.0 10.7 10.4 84 1.4 NNE 13 20 7 11 1009.5 1009.5 1.8
30/04:30am 13.3 11.1 10.7 84 1.4 N 13 17 7 9 1009.5 1009.5 1.8
30/04:00am 13.7 11.3 10.1 79 1.9 NNE 13 17 7 9 1009.4 1009.4 1.8
30/03:30am 14.3 11.4 9.5 73 2.5 NNW 15 20 8 11 1009.1 1009.1 1.8
30/03:00am 14.7 11.8 9.7 72 2.6 NNW 15 20 8 11 1009.0 1009.0 1.8
30/02:30am 14.1 12.4 9.9 76 2.2 N 9 17 5 9 1009.0 1009.0 1.8
30/02:00am 15.0 11.4 10.6 75 2.3 NNW 20 26 11 14 1009.4 1009.4 1.8
30/01:30am 14.5 11.5 10.7 78 2.0 NNW 17 24 9 13 1009.3 1009.3 1.8
30/01:00am 14.4 10.6 11.2 81 1.7 NNW 22 30 12 16 1009.2 1009.2 1.8
30/12:30am 13.0 11.5 10.7 86 1.2 N 9 11 5 6 1009.2 1009.2 1.8
30/12:00am 13.5 13.6 11.4 87 1.1 WNW 2 7 1 4 1009.0 1009.0 1.8
 
Date/Time
EST
Tmp

°C
App
Tmp
°C
Dew
Point
°C
Rel
Hum
%
Delta-T

°C
Wind Press
QNH
hPa
Press
MSL
hPa
Rain
since
9 am
mm
Dir
 
Spd
km/h
Gust
km/h
Spd
kts
Gust
kts
29/11:30pm 13.4 12.1 11.1 86 1.2 WNW 9 13 5 7 1009.1 1009.1 1.8
29/11:00pm 14.7 13.7 12.2 85 1.4 WNW 9 13 5 7 1009.5 1009.5 1.8
29/10:30pm 14.5 12.7 12.2 86 1.3 N 13 19 7 10 1009.4 1009.4 1.8
29/10:00pm 14.6 12.9 12.5 87 1.2 N 13 17 7 9 1009.3 1009.3 1.8
29/09:30pm 14.9 12.8 12.4 85 1.4 N 15 20 8 11 1008.8 1008.8 1.8
29/09:00pm 15.2 12.5 11.8 80 1.8 NNW 17 22 9 12 1008.3 1008.3 1.8
29/08:30pm 15.0 12.0 12.0 82 1.6 NW 19 24 10 13 1007.7 1007.7 1.8
29/08:00pm 15.6 12.6 12.7 83 1.6 NW 20 24 11 13 1007.9 1007.9 1.8
29/07:30pm 15.6 12.8 13.1 85 1.4 NNW 20 26 11 14 1007.9 1007.9 1.8
29/07:00pm 15.6 12.4 13.1 85 1.4 NNW 22 28 12 15 1007.5 1007.5 1.8
29/06:30pm 15.6 13.4 13.3 86 1.3 NNW 17 26 9 14 1007.5 1007.5 1.8
29/06:00pm 15.8 13.3 13.5 86 1.3 NNW 19 26 10 14 1007.6 1007.6 1.8
29/05:30pm 15.9 13.2 13.6 86 1.3 NW 20 30 11 16 1007.6 1007.6 1.8
29/05:00pm 16.1 14.3 13.4 84 1.5 NNW 15 20 8 11 1007.1 1007.1 1.6
29/04:30pm 16.2 14.1 13.5 84 1.5 NW 17 24 9 13 1007.1 1007.1 1.6
29/04:00pm 16.5 15.1 13.4 82 1.7 NNW 13 19 7 10 1007.1 1007.1 1.0
29/03:30pm 17.4 16.0 13.5 78 2.2 N 13 17 7 9 1007.1 1007.1 0.4
29/03:00pm 18.1 16.6 13.2 73 2.8 N 13 20 7 11 1007.1 1007.1 0.4
29/02:30pm 19.0 17.5 13.0 68 3.4 NNE 13 20 7 11 1007.0 1007.0 0.0
29/02:00pm 19.5 17.8 13.7 69 3.3 NNE 15 20 8 11 1007.4 1007.4 0.0
29/01:30pm 19.6 18.0 13.8 69 3.3 NNE 15 24 8 13 1008.0 1008.0 0.0
29/01:00pm 20.6 18.6 14.0 66 3.8 N 17 24 9 13 1008.4 1008.4 0.0
29/12:30pm 20.0 17.8 14.4 70 3.3 NNE 19 30 10 16 1008.8 1008.8 0.0
29/12:00pm 18.6 16.7 14.1 75 2.6 N 17 30 9 16 1009.8 1009.8 0.0
29/11:30am 18.5 16.2 14.0 75 2.6 NNE 19 28 10 15 1010.3 1010.3 0.0
29/11:00am 17.1 14.8 14.0 82 1.8 NNE 19 30 10 16 1010.8 1010.8 0.0
29/10:30am 15.6 13.6 13.8 89 1.0 NNE 17 32 9 17 1011.4 1011.4 0.0
29/10:00am 15.1 13.4 13.6 91 0.8 N 15 22 8 12 1012.1 1012.1 0.0
29/09:30am 14.3 12.0 13.0 92 0.7 NE 17 24 9 13 1012.0 1012.0 0.0
29/09:00am 13.7 11.2 12.4 92 0.7 NNE 17 24 9 13 1012.7 1012.7 1.0
29/08:30am 13.7 12.4 12.4 92 0.7 NNE 11 20 6 11 1013.4 1013.4 1.0
29/08:00am 13.8 11.4 12.5 92 0.7 N 17 24 9 13 1013.8 1013.8 1.0
29/07:30am 13.8 11.7 12.5 92 0.7 N 15 22 8 12 1013.9 1013.9 1.0
29/07:00am 13.8 12.1 12.5 92 0.7 NNE 13 20 7 11 1013.8 1013.8 1.0
29/06:30am 14.1 11.7 12.7 91 0.8 NNE 17 26 9 14 1013.9 1013.9 0.8
29/06:00am 14.1 12.5 12.8 92 0.7 N 13 20 7 11 1014.2 1014.2 0.6
29/05:30am 14.0 12.0 12.6 91 0.8 N 15 26 8 14 1014.4 1014.4 0.6
29/05:00am 14.2 11.3 12.8 91 0.8 NNE 20 28 11 15 1014.7 1014.7 0.2
29/04:30am 13.9 11.1 12.5 91 0.8 NE 19 26 10 14 1014.7 1014.7 0.0
29/04:00am 13.6 11.5 12.3 92 0.7 NNE 15 20 8 11 1015.2 1015.2 0.0
29/03:30am 13.0 10.7 11.6 91 0.7 NE 15 20 8 11 1015.4 1015.4 0.0
29/03:00am 12.8 11.2 11.4 91 0.7 NNE 11 17 6 9 1015.8 1015.8 0.0
29/02:30am 13.2 12.4 11.8 91 0.7 N 7 13 4 7 1016.6 1016.6 0.0
29/02:00am 13.0 12.4 11.6 91 0.7 N 6 9 3 5 1016.7 1016.7 0.0
29/01:30am 13.0 11.8 11.6 91 0.7 NNW 9 17 5 9 1017.2 1017.2 0.0
29/01:00am 13.1 11.5 11.7 91 0.7 N 11 13 6 7 1017.0 1017.0 0.0
29/12:30am 12.8 11.1 11.2 90 0.8 N 11 17 6 9 1017.3 1017.3 0.0
29/12:00am 12.1 10.5 10.3 89 0.9 NNW 9 11 5 6 1017.5 1017.5 0.0

Latest Capital City Observations: Canberra | Sydney | Melbourne | Brisbane | Adelaide | Perth | Hobart | Darwin

Other Formats:

Comma delimited format used in spreadsheet applications
http://www.bom.gov.au/fwo/IDT60901/IDT60901.95967.axf

JavaScript Object Notation format (JSON) in row-major order
http://www.bom.gov.au/fwo/IDT60901/IDT60901.95967.json